sensor_id;sensor_type;location;lat;lon;timestamp;temperature;humidity
16814;DHT22;8524;57.650;11.926;2022-09-01T00:01:00;8.80;99.90
16814;DHT22;8524;57.650;11.926;2022-09-01T00:03:29;8.80;99.90
16814;DHT22;8524;57.650;11.926;2022-09-01T00:05:56;8.70;99.90
16814;DHT22;8524;57.650;11.926;2022-09-01T00:08:23;8.80;99.90
16814;DHT22;8524;57.650;11.926;2022-09-01T00:10:50;8.70;99.90
16814;DHT22;8524;57.650;11.926;2022-09-01T00:13:17;8.80;99.90
16814;DHT22;8524;57.650;11.926;2022-09-01T00:15:44;8.80;99.90
16814;DHT22;8524;57.650;11.926;2022-09-01T00:18:13;8.70;99.90
16814;DHT22;8524;57.650;11.926;2022-09-01T00:20:40;8.80;99.90
16814;DHT22;8524;57.650;11.926;2022-09-01T00:23:07;8.80;99.90
16814;DHT22;8524;57.650;11.926;2022-09-01T00:25:34;8.90;99.90
16814;DHT22;8524;57.650;11.926;2022-09-01T00:28:02;8.80;99.90
16814;DHT22;8524;57.650;11.926;2022-09-01T00:30:30;8.80;99.90
16814;DHT22;8524;57.650;11.926;2022-09-01T00:32:56;8.70;99.90
16814;DHT22;8524;57.650;11.926;2022-09-01T00:35:25;8.50;99.90
16814;DHT22;8524;57.650;11.926;2022-09-01T00:37:52;8.50;99.90
16814;DHT22;8524;57.650;11.926;2022-09-01T00:40:19;8.50;99.90
16814;DHT22;8524;57.650;11.926;2022-09-01T00:42:46;8.50;99.90
16814;DHT22;8524;57.650;11.926;2022-09-01T00:45:14;8.40;99.90
16814;DHT22;8524;57.650;11.926;2022-09-01T00:47:41;8.30;99.90
16814;DHT22;8524;57.650;11.926;2022-09-01T00:50:10;8.40;99.90
16814;DHT22;8524;57.650;11.926;2022-09-01T00:52:42;8.30;99.90
16814;DHT22;8524;57.650;11.926;2022-09-01T00:55:14;8.30;99.90
16814;DHT22;8524;57.650;11.926;2022-09-01T00:57:42;8.30;99.90
16814;DHT22;8524;57.650;11.926;2022-09-01T01:00:12;8.40;99.90
16814;DHT22;8524;57.650;11.926;2022-09-01T01:02:41;8.40;99.90
16814;DHT22;8524;57.650;11.926;2022-09-01T01:05:09;8.40;99.90
16814;DHT22;8524;57.650;11.926;2022-09-01T01:07:36;8.30;99.90
16814;DHT22;8524;57.650;11.926;2022-09-01T01:10:11;8.30;99.90
16814;DHT22;8524;57.650;11.926;2022-09-01T01:12:41;8.30;99.90
16814;DHT22;8524;57.650;11.926;2022-09-01T01:15:09;8.30;99.90
16814;DHT22;8524;57.650;11.926;2022-09-01T01:17:37;8.30;99.90
16814;DHT22;8524;57.650;11.926;2022-09-01T01:20:06;8.30;99.90
16814;DHT22;8524;57.650;11.926;2022-09-01T01:22:59;8.30;99.90
16814;DHT22;8524;57.650;11.926;2022-09-01T01:25:36;8.30;99.90
16814;DHT22;8524;57.650;11.926;2022-09-01T01:28:10;8.20;99.90
16814;DHT22;8524;57.650;11.926;2022-09-01T01:30:40;8.20;99.90
16814;DHT22;8524;57.650;11.926;2022-09-01T01:33:08;8.20;99.90
16814;DHT22;8524;57.650;11.926;2022-09-01T01:35:36;8.20;99.90
16814;DHT22;8524;57.650;11.926;2022-09-01T01:38:04;8.20;99.90
16814;DHT22;8524;57.650;11.926;2022-09-01T01:40:35;8.20;99.90
16814;DHT22;8524;57.650;11.926;2022-09-01T01:43:04;8.30;99.90
16814;DHT22;8524;57.650;11.926;2022-09-01T01:45:31;8.30;99.90
16814;DHT22;8524;57.650;11.926;2022-09-01T01:47:58;8.30;99.90
16814;DHT22;8524;57.650;11.926;2022-09-01T01:50:30;8.30;99.90
16814;DHT22;8524;57.650;11.926;2022-09-01T01:52:58;8.20;99.90
16814;DHT22;8524;57.650;11.926;2022-09-01T01:55:28;8.20;99.90
16814;DHT22;8524;57.650;11.926;2022-09-01T01:57:57;8.20;99.90
16814;DHT22;8524;57.650;11.926;2022-09-01T02:00:26;8.10;99.90
16814;DHT22;8524;57.650;11.926;2022-09-01T02:02:54;8.10;99.90
16814;DHT22;8524;57.650;11.926;2022-09-01T02:05:24;8.00;99.90
16814;DHT22;8524;57.650;11.926;2022-09-01T02:07:53;7.90;99.90
16814;DHT22;8524;57.650;11.926;2022-09-01T02:10:25;7.90;99.90
16814;DHT22;8524;57.650;11.926;2022-09-01T02:12:56;8.00;99.90
16814;DHT22;8524;57.650;11.926;2022-09-01T02:15:28;8.00;99.90
16814;DHT22;8524;57.650;11.926;2022-09-01T02:17:56;8.00;99.90
16814;DHT22;8524;57.650;11.926;2022-09-01T02:20:24;8.00;99.90
16814;DHT22;8524;57.650;11.926;2022-09-01T02:22:54;7.90;99.90
16814;DHT22;8524;57.650;11.926;2022-09-01T02:25:22;7.80;99.90
16814;DHT22;8524;57.650;11.926;2022-09-01T02:27:49;7.70;99.90
16814;DHT22;8524;57.650;11.926;2022-09-01T02:30:19;7.70;99.90
16814;DHT22;8524;57.650;11.926;2022-09-01T02:32:46;7.80;99.90
16814;DHT22;8524;57.650;11.926;2022-09-01T02:35:13;7.80;99.90
16814;DHT22;8524;57.650;11.926;2022-09-01T02:37:41;7.80;99.90
16814;DHT22;8524;57.650;11.926;2022-09-01T02:40:08;7.80;99.90
16814;DHT22;8524;57.650;11.926;2022-09-01T02:42:37;7.80;99.90
16814;DHT22;8524;57.650;11.926;2022-09-01T02:45:08;7.90;99.90
16814;DHT22;8524;57.650;11.926;2022-09-01T02:47:43;7.80;99.90
16814;DHT22;8524;57.650;11.926;2022-09-01T02:50:13;7.80;99.90
16814;DHT22;8524;57.650;11.926;2022-09-01T02:52:42;7.80;99.90
16814;DHT22;8524;57.650;11.926;2022-09-01T02:55:10;7.80;99.90
16814;DHT22;8524;57.650;11.926;2022-09-01T02:57:37;7.80;99.90
16814;DHT22;8524;57.650;11.926;2022-09-01T03:00:07;7.80;99.90
16814;DHT22;8524;57.650;11.926;2022-09-01T03:02:48;7.70;99.90
16814;DHT22;8524;57.650;11.926;2022-09-01T03:05:16;7.60;99.90
16814;DHT22;8524;57.650;11.926;2022-09-01T03:07:43;7.70;99.90
16814;DHT22;8524;57.650;11.926;2022-09-01T03:10:10;7.70;99.90
16814;DHT22;8524;57.650;11.926;2022-09-01T03:12:37;7.70;99.90
16814;DHT22;8524;57.650;11.926;2022-09-01T03:15:05;7.70;99.90
16814;DHT22;8524;57.650;11.926;2022-09-01T03:17:33;7.70;99.90
16814;DHT22;8524;57.650;11.926;2022-09-01T03:20:01;7.70;99.90
16814;DHT22;8524;57.650;11.926;2022-09-01T03:22:28;7.60;99.90
16814;DHT22;8524;57.650;11.926;2022-09-01T03:24:56;7.70;99.90
16814;DHT22;8524;57.650;11.926;2022-09-01T03:27:22;7.60;99.90
16814;DHT22;8524;57.650;11.926;2022-09-01T03:29:49;7.70;99.90
16814;DHT22;8524;57.650;11.926;2022-09-01T03:32:16;7.60;99.90
16814;DHT22;8524;57.650;11.926;2022-09-01T03:34:43;7.70;99.90
16814;DHT22;8524;57.650;11.926;2022-09-01T03:37:12;7.60;99.90
16814;DHT22;8524;57.650;11.926;2022-09-01T03:39:39;7.60;99.90
16814;DHT22;8524;57.650;11.926;2022-09-01T03:42:06;7.60;99.90
16814;DHT22;8524;57.650;11.926;2022-09-01T03:44:36;7.60;99.90
16814;DHT22;8524;57.650;11.926;2022-09-01T03:47:05;7.60;99.90
16814;DHT22;8524;57.650;11.926;2022-09-01T03:49:35;7.50;99.90
16814;DHT22;8524;57.650;11.926;2022-09-01T03:52:04;7.50;99.90
16814;DHT22;8524;57.650;11.926;2022-09-01T03:54:34;7.50;99.90
16814;DHT22;8524;57.650;11.926;2022-09-01T03:57:02;7.50;99.90
16814;DHT22;8524;57.650;11.926;2022-09-01T03:59:31;7.50;99.90
16814;DHT22;8524;57.650;11.926;2022-09-01T04:01:58;7.50;99.90
16814;DHT22;8524;57.650;11.926;2022-09-01T04:04:27;7.40;99.90
16814;DHT22;8524;57.650;11.926;2022-09-01T04:06:57;7.40;99.90
16814;DHT22;8524;57.650;11.926;2022-09-01T04:09:24;7.40;99.90
16814;DHT22;8524;57.650;11.926;2022-09-01T04:11:53;7.40;99.90
16814;DHT22;8524;57.650;11.926;2022-09-01T04:14:20;7.40;99.90
16814;DHT22;8524;57.650;11.926;2022-09-01T04:16:47;7.40;99.90
16814;DHT22;8524;57.650;11.926;2022-09-01T04:19:28;7.40;99.90
16814;DHT22;8524;57.650;11.926;2022-09-01T04:22:00;7.40;99.90
16814;DHT22;8524;57.650;11.926;2022-09-01T04:24:30;7.40;99.90
16814;DHT22;8524;57.650;11.926;2022-09-01T04:27:00;7.50;99.90
16814;DHT22;8524;57.650;11.926;2022-09-01T04:29:28;7.50;99.90
16814;DHT22;8524;57.650;11.926;2022-09-01T04:31:57;7.50;99.90
16814;DHT22;8524;57.650;11.926;2022-09-01T04:34:28;7.50;99.90
16814;DHT22;8524;57.650;11.926;2022-09-01T04:37:01;7.50;99.90
16814;DHT22;8524;57.650;11.926;2022-09-01T04:39:30;7.60;99.90
16814;DHT22;8524;57.650;11.926;2022-09-01T04:41:58;7.60;99.90
16814;DHT22;8524;57.650;11.926;2022-09-01T04:44:31;7.60;99.90
16814;DHT22;8524;57.650;11.926;2022-09-01T04:46:57;7.60;99.90
16814;DHT22;8524;57.650;11.926;2022-09-01T04:49:24;7.60;99.90
16814;DHT22;8524;57.650;11.926;2022-09-01T04:51:58;7.70;99.90
16814;DHT22;8524;57.650;11.926;2022-09-01T04:54:25;7.70;99.90
16814;DHT22;8524;57.650;11.926;2022-09-01T04:56:52;7.80;99.90
16814;DHT22;8524;57.650;11.926;2022-09-01T04:59:22;7.80;99.90
16814;DHT22;8524;57.650;11.926;2022-09-01T05:01:52;7.80;99.90
16814;DHT22;8524;57.650;11.926;2022-09-01T05:04:24;7.80;99.90
16814;DHT22;8524;57.650;11.926;2022-09-01T05:06:54;7.80;99.90
16814;DHT22;8524;57.650;11.926;2022-09-01T05:09:24;7.90;99.90
16814;DHT22;8524;57.650;11.926;2022-09-01T05:11:52;8.00;99.90
16814;DHT22;8524;57.650;11.926;2022-09-01T05:14:20;8.10;99.90
16814;DHT22;8524;57.650;11.926;2022-09-01T05:16:48;8.20;99.90
16814;DHT22;8524;57.650;11.926;2022-09-01T05:19:18;8.40;99.90
16814;DHT22;8524;57.650;11.926;2022-09-01T05:21:46;8.60;99.90
16814;DHT22;8524;57.650;11.926;2022-09-01T05:24:17;8.80;99.90
16814;DHT22;8524;57.650;11.926;2022-09-01T05:26:47;9.00;99.90
16814;DHT22;8524;57.650;11.926;2022-09-01T05:29:15;9.30;99.90
16814;DHT22;8524;57.650;11.926;2022-09-01T05:31:45;9.60;99.90
16814;DHT22;8524;57.650;11.926;2022-09-01T05:34:14;9.90;99.90
16814;DHT22;8524;57.650;11.926;2022-09-01T05:36:45;10.10;99.90
16814;DHT22;8524;57.650;11.926;2022-09-01T05:39:15;10.30;99.90
16814;DHT22;8524;57.650;11.926;2022-09-01T05:41:42;10.70;99.90
16814;DHT22;8524;57.650;11.926;2022-09-01T05:44:11;10.80;99.90
16814;DHT22;8524;57.650;11.926;2022-09-01T05:46:40;11.10;99.90
16814;DHT22;8524;57.650;11.926;2022-09-01T05:49:11;11.30;99.90
16814;DHT22;8524;57.650;11.926;2022-09-01T05:51:42;11.60;99.90
16814;DHT22;8524;57.650;11.926;2022-09-01T05:54:11;11.80;99.90
16814;DHT22;8524;57.650;11.926;2022-09-01T05:56:38;12.00;99.90
16814;DHT22;8524;57.650;11.926;2022-09-01T05:59:07;12.40;99.90
16814;DHT22;8524;57.650;11.926;2022-09-01T06:01:37;12.70;99.90
16814;DHT22;8524;57.650;11.926;2022-09-01T06:04:10;13.00;99.90
16814;DHT22;8524;57.650;11.926;2022-09-01T06:06:42;13.30;99.90
16814;DHT22;8524;57.650;11.926;2022-09-01T06:09:12;13.60;99.90
16814;DHT22;8524;57.650;11.926;2022-09-01T06:11:42;13.80;99.90
16814;DHT22;8524;57.650;11.926;2022-09-01T06:14:11;13.80;99.90
16814;DHT22;8524;57.650;11.926;2022-09-01T06:16:40;13.90;99.90
16814;DHT22;8524;57.650;11.926;2022-09-01T06:19:09;14.20;99.90
16814;DHT22;8524;57.650;11.926;2022-09-01T06:21:38;14.30;99.90
16814;DHT22;8524;57.650;11.926;2022-09-01T06:24:06;14.40;99.90
16814;DHT22;8524;57.650;11.926;2022-09-01T06:26:37;14.50;99.90
16814;DHT22;8524;57.650;11.926;2022-09-01T06:29:07;14.80;99.90
16814;DHT22;8524;57.650;11.926;2022-09-01T06:31:40;15.00;99.90
16814;DHT22;8524;57.650;11.926;2022-09-01T06:34:10;15.00;99.90
16814;DHT22;8524;57.650;11.926;2022-09-01T06:36:42;15.20;99.90
16814;DHT22;8524;57.650;11.926;2022-09-01T06:39:10;15.30;99.90
16814;DHT22;8524;57.650;11.926;2022-09-01T06:41:44;15.30;99.90
16814;DHT22;8524;57.650;11.926;2022-09-01T06:44:17;15.40;99.90
16814;DHT22;8524;57.650;11.926;2022-09-01T06:46:48;15.60;99.90
16814;DHT22;8524;57.650;11.926;2022-09-01T06:49:17;15.70;99.90
16814;DHT22;8524;57.650;11.926;2022-09-01T06:51:46;15.90;99.90
16814;DHT22;8524;57.650;11.926;2022-09-01T06:54:14;16.00;99.90
16814;DHT22;8524;57.650;11.926;2022-09-01T06:56:41;16.10;99.90
16814;DHT22;8524;57.650;11.926;2022-09-01T06:59:08;16.10;99.90
16814;DHT22;8524;57.650;11.926;2022-09-01T07:01:40;16.20;99.90
16814;DHT22;8524;57.650;11.926;2022-09-01T07:04:07;16.10;99.90
16814;DHT22;8524;57.650;11.926;2022-09-01T07:06:38;16.00;99.90
16814;DHT22;8524;57.650;11.926;2022-09-01T07:09:06;16.20;99.90
16814;DHT22;8524;57.650;11.926;2022-09-01T07:11:34;16.30;99.90
16814;DHT22;8524;57.650;11.926;2022-09-01T07:14:04;16.30;99.90
16814;DHT22;8524;57.650;11.926;2022-09-01T07:16:34;16.30;99.90
16814;DHT22;8524;57.650;11.926;2022-09-01T07:19:04;16.40;99.90
16814;DHT22;8524;57.650;11.926;2022-09-01T07:21:33;16.60;99.90
16814;DHT22;8524;57.650;11.926;2022-09-01T07:24:02;16.50;99.90
16814;DHT22;8524;57.650;11.926;2022-09-01T07:26:30;16.70;99.90
16814;DHT22;8524;57.650;11.926;2022-09-01T07:28:59;16.80;99.90
16814;DHT22;8524;57.650;11.926;2022-09-01T07:31:43;16.70;99.90
16814;DHT22;8524;57.650;11.926;2022-09-01T07:34:12;16.70;99.90
16814;DHT22;8524;57.650;11.926;2022-09-01T07:36:41;16.70;99.90
16814;DHT22;8524;57.650;11.926;2022-09-01T07:39:11;16.50;99.90
16814;DHT22;8524;57.650;11.926;2022-09-01T07:41:40;16.40;99.90
16814;DHT22;8524;57.650;11.926;2022-09-01T07:44:08;16.60;99.90
16814;DHT22;8524;57.650;11.926;2022-09-01T07:46:38;16.70;99.90
16814;DHT22;8524;57.650;11.926;2022-09-01T07:49:07;16.70;99.90
16814;DHT22;8524;57.650;11.926;2022-09-01T07:51:34;16.70;99.90
16814;DHT22;8524;57.650;11.926;2022-09-01T07:54:02;16.90;99.90
16814;DHT22;8524;57.650;11.926;2022-09-01T07:56:31;17.00;99.90
16814;DHT22;8524;57.650;11.926;2022-09-01T07:58:58;17.10;99.90
16814;DHT22;8524;57.650;11.926;2022-09-01T08:01:27;17.30;99.90
16814;DHT22;8524;57.650;11.926;2022-09-01T08:03:56;17.50;99.90
16814;DHT22;8524;57.650;11.926;2022-09-01T08:06:26;17.40;99.90
16814;DHT22;8524;57.650;11.926;2022-09-01T08:08:57;17.60;99.90
16814;DHT22;8524;57.650;11.926;2022-09-01T08:11:26;17.70;99.90
16814;DHT22;8524;57.650;11.926;2022-09-01T08:13:56;17.80;99.90
16814;DHT22;8524;57.650;11.926;2022-09-01T08:16:25;17.90;99.90
16814;DHT22;8524;57.650;11.926;2022-09-01T08:18:53;17.90;99.90
16814;DHT22;8524;57.650;11.926;2022-09-01T08:21:21;17.90;99.90
16814;DHT22;8524;57.650;11.926;2022-09-01T08:23:49;17.90;99.90
16814;DHT22;8524;57.650;11.926;2022-09-01T08:26:18;18.00;99.90
16814;DHT22;8524;57.650;11.926;2022-09-01T08:28:48;18.20;99.90
16814;DHT22;8524;57.650;11.926;2022-09-01T08:31:18;18.10;99.90
16814;DHT22;8524;57.650;11.926;2022-09-01T08:33:47;18.10;99.90
16814;DHT22;8524;57.650;11.926;2022-09-01T08:36:15;18.30;99.90
16814;DHT22;8524;57.650;11.926;2022-09-01T08:38:43;18.20;99.90
16814;DHT22;8524;57.650;11.926;2022-09-01T08:41:15;18.40;99.90
16814;DHT22;8524;57.650;11.926;2022-09-01T08:43:51;18.50;99.90
16814;DHT22;8524;57.650;11.926;2022-09-01T08:46:24;18.60;99.90
16814;DHT22;8524;57.650;11.926;2022-09-01T08:48:54;18.70;99.90
16814;DHT22;8524;57.650;11.926;2022-09-01T08:51:26;18.80;99.90
16814;DHT22;8524;57.650;11.926;2022-09-01T08:54:00;18.90;99.90
16814;DHT22;8524;57.650;11.926;2022-09-01T08:56:41;18.80;99.90
16814;DHT22;8524;57.650;11.926;2022-09-01T08:59:08;18.80;99.90
16814;DHT22;8524;57.650;11.926;2022-09-01T09:01:42;18.90;99.90
16814;DHT22;8524;57.650;11.926;2022-09-01T09:04:21;18.90;99.90
16814;DHT22;8524;57.650;11.926;2022-09-01T09:06:58;19.00;99.90
16814;DHT22;8524;57.650;11.926;2022-09-01T09:09:32;19.00;99.90
16814;DHT22;8524;57.650;11.926;2022-09-01T09:15:03;19.20;99.90
16814;DHT22;8524;57.650;11.926;2022-09-01T09:17:40;19.30;99.90
16814;DHT22;8524;57.650;11.926;2022-09-01T09:20:09;19.40;99.90
16814;DHT22;8524;57.650;11.926;2022-09-01T09:22:36;19.40;99.90
16814;DHT22;8524;57.650;11.926;2022-09-01T09:25:06;19.40;99.90
16814;DHT22;8524;57.650;11.926;2022-09-01T09:27:36;19.70;99.90
16814;DHT22;8524;57.650;11.926;2022-09-01T09:30:06;19.60;99.90
16814;DHT22;8524;57.650;11.926;2022-09-01T09:32:47;19.70;99.90
16814;DHT22;8524;57.650;11.926;2022-09-01T09:35:24;19.70;99.90
16814;DHT22;8524;57.650;11.926;2022-09-01T09:37:52;19.80;99.90
16814;DHT22;8524;57.650;11.926;2022-09-01T09:40:22;19.80;99.90
16814;DHT22;8524;57.650;11.926;2022-09-01T09:43:05;19.90;99.90
16814;DHT22;8524;57.650;11.926;2022-09-01T09:45:35;20.00;99.90
16814;DHT22;8524;57.650;11.926;2022-09-01T09:48:07;20.00;99.90
16814;DHT22;8524;57.650;11.926;2022-09-01T09:50:36;19.90;99.90
16814;DHT22;8524;57.650;11.926;2022-09-01T09:53:14;19.80;99.90
16814;DHT22;8524;57.650;11.926;2022-09-01T09:56:02;20.00;99.90
16814;DHT22;8524;57.650;11.926;2022-09-01T09:58:34;20.00;99.90
16814;DHT22;8524;57.650;11.926;2022-09-01T10:01:09;19.90;99.90
16814;DHT22;8524;57.650;11.926;2022-09-01T10:03:45;20.10;99.90
16814;DHT22;8524;57.650;11.926;2022-09-01T10:06:29;20.10;99.90
16814;DHT22;8524;57.650;11.926;2022-09-01T10:08:58;20.10;99.90
16814;DHT22;8524;57.650;11.926;2022-09-01T10:11:29;20.30;99.90
16814;DHT22;8524;57.650;11.926;2022-09-01T10:13:57;20.30;99.90
16814;DHT22;8524;57.650;11.926;2022-09-01T10:16:29;20.40;99.90
16814;DHT22;8524;57.650;11.926;2022-09-01T10:19:00;20.40;99.90
16814;DHT22;8524;57.650;11.926;2022-09-01T10:21:33;20.60;99.90
16814;DHT22;8524;57.650;11.926;2022-09-01T10:24:15;20.60;99.90
16814;DHT22;8524;57.650;11.926;2022-09-01T10:26:46;20.80;99.90
16814;DHT22;8524;57.650;11.926;2022-09-01T10:29:19;20.90;99.90
16814;DHT22;8524;57.650;11.926;2022-09-01T10:31:48;21.00;99.90
16814;DHT22;8524;57.650;11.926;2022-09-01T10:34:17;20.60;99.90
16814;DHT22;8524;57.650;11.926;2022-09-01T10:36:46;20.60;99.90
16814;DHT22;8524;57.650;11.926;2022-09-01T10:39:15;20.90;99.90
16814;DHT22;8524;57.650;11.926;2022-09-01T10:41:53;21.00;99.90
16814;DHT22;8524;57.650;11.926;2022-09-01T10:44:24;21.20;99.90
16814;DHT22;8524;57.650;11.926;2022-09-01T10:46:56;21.00;99.90
16814;DHT22;8524;57.650;11.926;2022-09-01T10:49:59;21.20;99.90
16814;DHT22;8524;57.650;11.926;2022-09-01T10:52:56;21.10;99.90
16814;DHT22;8524;57.650;11.926;2022-09-01T10:55:30;21.10;99.90
16814;DHT22;8524;57.650;11.926;2022-09-01T10:58:20;21.30;99.90
16814;DHT22;8524;57.650;11.926;2022-09-01T11:00:52;21.40;99.90
16814;DHT22;8524;57.650;11.926;2022-09-01T11:03:34;21.00;99.90
16814;DHT22;8524;57.650;11.926;2022-09-01T11:06:05;21.30;99.90
16814;DHT22;8524;57.650;11.926;2022-09-01T11:08:44;21.60;99.90
16814;DHT22;8524;57.650;11.926;2022-09-01T11:11:25;21.10;99.90
16814;DHT22;8524;57.650;11.926;2022-09-01T11:13:56;21.30;99.90
16814;DHT22;8524;57.650;11.926;2022-09-01T11:16:28;21.50;99.90
16814;DHT22;8524;57.650;11.926;2022-09-01T11:18:56;21.40;99.90
16814;DHT22;8524;57.650;11.926;2022-09-01T11:21:43;21.40;99.90
16814;DHT22;8524;57.650;11.926;2022-09-01T11:30:41;21.40;99.90
16814;DHT22;8524;57.650;11.926;2022-09-01T11:33:42;21.50;99.90
16814;DHT22;8524;57.650;11.926;2022-09-01T11:36:21;21.30;99.90
16814;DHT22;8524;57.650;11.926;2022-09-01T11:38:51;21.10;99.90
16814;DHT22;8524;57.650;11.926;2022-09-01T11:41:25;21.10;99.90
16814;DHT22;8524;57.650;11.926;2022-09-01T11:44:11;21.10;99.90
16814;DHT22;8524;57.650;11.926;2022-09-01T11:46:41;21.50;99.90
16814;DHT22;8524;57.650;11.926;2022-09-01T11:49:24;21.50;99.90
16814;DHT22;8524;57.650;11.926;2022-09-01T11:51:53;21.50;99.90
16814;DHT22;8524;57.650;11.926;2022-09-01T11:54:21;21.50;99.90
16814;DHT22;8524;57.650;11.926;2022-09-01T11:56:49;21.60;99.90
16814;DHT22;8524;57.650;11.926;2022-09-01T11:59:29;21.40;99.90
16814;DHT22;8524;57.650;11.926;2022-09-01T12:01:58;21.40;99.90
16814;DHT22;8524;57.650;11.926;2022-09-01T12:04:31;21.40;99.90
16814;DHT22;8524;57.650;11.926;2022-09-01T12:07:02;21.30;99.90
16814;DHT22;8524;57.650;11.926;2022-09-01T12:09:35;21.50;99.90
16814;DHT22;8524;57.650;11.926;2022-09-01T12:12:07;21.50;99.90
16814;DHT22;8524;57.650;11.926;2022-09-01T12:14:55;21.40;99.90
16814;DHT22;8524;57.650;11.926;2022-09-01T12:17:24;21.40;99.90
16814;DHT22;8524;57.650;11.926;2022-09-01T12:19:51;21.50;99.90
16814;DHT22;8524;57.650;11.926;2022-09-01T12:22:20;21.50;99.90
16814;DHT22;8524;57.650;11.926;2022-09-01T12:24:48;21.70;99.90
16814;DHT22;8524;57.650;11.926;2022-09-01T12:27:16;21.70;99.90
16814;DHT22;8524;57.650;11.926;2022-09-01T12:29:43;21.40;99.90
16814;DHT22;8524;57.650;11.926;2022-09-01T12:32:13;21.20;99.90
16814;DHT22;8524;57.650;11.926;2022-09-01T12:34:59;21.00;99.90
16814;DHT22;8524;57.650;11.926;2022-09-01T12:37:27;20.80;99.90
16814;DHT22;8524;57.650;11.926;2022-09-01T12:39:56;20.90;99.90
16814;DHT22;8524;57.650;11.926;2022-09-01T12:42:26;20.70;99.90
16814;DHT22;8524;57.650;11.926;2022-09-01T12:44:55;20.50;99.90
16814;DHT22;8524;57.650;11.926;2022-09-01T12:47:46;20.40;99.90
16814;DHT22;8524;57.650;11.926;2022-09-01T12:50:40;20.70;99.90
16814;DHT22;8524;57.650;11.926;2022-09-01T12:53:16;20.90;99.90
16814;DHT22;8524;57.650;11.926;2022-09-01T12:55:56;21.00;99.90
16814;DHT22;8524;57.650;11.926;2022-09-01T12:58:25;21.50;99.90
16814;DHT22;8524;57.650;11.926;2022-09-01T13:00:56;21.40;99.90
16814;DHT22;8524;57.650;11.926;2022-09-01T13:03:24;21.40;99.90
16814;DHT22;8524;57.650;11.926;2022-09-01T13:05:57;21.10;99.90
16814;DHT22;8524;57.650;11.926;2022-09-01T13:08:26;20.90;99.90
16814;DHT22;8524;57.650;11.926;2022-09-01T13:10:56;21.00;99.90
16814;DHT22;8524;57.650;11.926;2022-09-01T13:13:25;21.30;99.90
16814;DHT22;8524;57.650;11.926;2022-09-01T13:15:54;21.40;99.90
16814;DHT22;8524;57.650;11.926;2022-09-01T13:18:23;21.60;99.90
16814;DHT22;8524;57.650;11.926;2022-09-01T13:20:51;21.80;99.90
16814;DHT22;8524;57.650;11.926;2022-09-01T13:23:20;22.20;99.90
16814;DHT22;8524;57.650;11.926;2022-09-01T13:25:48;22.20;99.90
16814;DHT22;8524;57.650;11.926;2022-09-01T13:28:16;22.10;99.90
16814;DHT22;8524;57.650;11.926;2022-09-01T13:30:44;22.00;99.90
16814;DHT22;8524;57.650;11.926;2022-09-01T13:33:13;22.20;99.90
16814;DHT22;8524;57.650;11.926;2022-09-01T13:35:40;22.00;99.90
16814;DHT22;8524;57.650;11.926;2022-09-01T13:38:07;21.80;99.90
16814;DHT22;8524;57.650;11.926;2022-09-01T13:40:36;21.70;99.90
16814;DHT22;8524;57.650;11.926;2022-09-01T13:43:03;21.40;99.90
16814;DHT22;8524;57.650;11.926;2022-09-01T13:45:30;21.20;99.90
16814;DHT22;8524;57.650;11.926;2022-09-01T13:47:57;21.00;99.90
16814;DHT22;8524;57.650;11.926;2022-09-01T13:50:25;20.90;99.90
16814;DHT22;8524;57.650;11.926;2022-09-01T13:52:54;21.20;99.90
16814;DHT22;8524;57.650;11.926;2022-09-01T13:55:23;21.30;99.90
16814;DHT22;8524;57.650;11.926;2022-09-01T13:57:52;21.40;99.90
16814;DHT22;8524;57.650;11.926;2022-09-01T14:00:21;21.60;99.90
16814;DHT22;8524;57.650;11.926;2022-09-01T14:02:50;21.50;99.90
16814;DHT22;8524;57.650;11.926;2022-09-01T14:05:20;21.60;99.90
16814;DHT22;8524;57.650;11.926;2022-09-01T14:07:48;21.50;99.90
16814;DHT22;8524;57.650;11.926;2022-09-01T14:10:15;21.60;99.90
16814;DHT22;8524;57.650;11.926;2022-09-01T14:12:43;21.70;99.90
16814;DHT22;8524;57.650;11.926;2022-09-01T14:15:14;21.70;99.90
16814;DHT22;8524;57.650;11.926;2022-09-01T14:17:42;21.60;99.90
16814;DHT22;8524;57.650;11.926;2022-09-01T14:20:12;21.40;99.90
16814;DHT22;8524;57.650;11.926;2022-09-01T14:22:39;21.30;99.90
16814;DHT22;8524;57.650;11.926;2022-09-01T14:25:07;21.30;99.90
16814;DHT22;8524;57.650;11.926;2022-09-01T14:27:35;21.40;99.90
16814;DHT22;8524;57.650;11.926;2022-09-01T14:30:03;21.40;99.90
16814;DHT22;8524;57.650;11.926;2022-09-01T14:32:33;21.40;99.90
16814;DHT22;8524;57.650;11.926;2022-09-01T14:35:01;21.30;99.90
16814;DHT22;8524;57.650;11.926;2022-09-01T14:37:28;21.20;99.90
16814;DHT22;8524;57.650;11.926;2022-09-01T14:39:56;21.20;99.90
16814;DHT22;8524;57.650;11.926;2022-09-01T14:42:24;21.40;99.90
16814;DHT22;8524;57.650;11.926;2022-09-01T14:44:53;21.50;99.90
16814;DHT22;8524;57.650;11.926;2022-09-01T14:47:21;21.60;99.90
16814;DHT22;8524;57.650;11.926;2022-09-01T14:49:51;21.80;99.90
16814;DHT22;8524;57.650;11.926;2022-09-01T14:52:18;21.80;99.90
16814;DHT22;8524;57.650;11.926;2022-09-01T14:54:46;21.40;99.90
16814;DHT22;8524;57.650;11.926;2022-09-01T14:57:14;21.50;99.90
16814;DHT22;8524;57.650;11.926;2022-09-01T14:59:41;21.60;99.90
16814;DHT22;8524;57.650;11.926;2022-09-01T15:02:08;21.10;99.90
16814;DHT22;8524;57.650;11.926;2022-09-01T15:04:35;20.90;99.90
16814;DHT22;8524;57.650;11.926;2022-09-01T15:07:05;20.90;99.90
16814;DHT22;8524;57.650;11.926;2022-09-01T15:09:32;21.10;99.90
16814;DHT22;8524;57.650;11.926;2022-09-01T15:11:59;21.10;99.90
16814;DHT22;8524;57.650;11.926;2022-09-01T15:14:26;21.00;99.90
16814;DHT22;8524;57.650;11.926;2022-09-01T15:16:53;20.80;99.90
16814;DHT22;8524;57.650;11.926;2022-09-01T15:19:20;20.80;99.90
16814;DHT22;8524;57.650;11.926;2022-09-01T15:21:47;20.90;99.90
16814;DHT22;8524;57.650;11.926;2022-09-01T15:24:16;20.60;99.90
16814;DHT22;8524;57.650;11.926;2022-09-01T15:26:44;20.40;99.90
16814;DHT22;8524;57.650;11.926;2022-09-01T15:29:11;20.50;99.90
16814;DHT22;8524;57.650;11.926;2022-09-01T15:31:40;20.50;99.90
16814;DHT22;8524;57.650;11.926;2022-09-01T15:34:07;20.60;99.90
16814;DHT22;8524;57.650;11.926;2022-09-01T15:36:37;20.70;99.90
16814;DHT22;8524;57.650;11.926;2022-09-01T15:39:07;20.60;99.90
16814;DHT22;8524;57.650;11.926;2022-09-01T15:41:37;20.50;99.90
16814;DHT22;8524;57.650;11.926;2022-09-01T15:44:06;20.40;99.90
16814;DHT22;8524;57.650;11.926;2022-09-01T15:46:33;20.30;99.90
16814;DHT22;8524;57.650;11.926;2022-09-01T15:49:02;20.40;99.90
16814;DHT22;8524;57.650;11.926;2022-09-01T15:51:32;20.20;99.90
16814;DHT22;8524;57.650;11.926;2022-09-01T15:54:02;20.10;99.90
16814;DHT22;8524;57.650;11.926;2022-09-01T15:56:29;20.00;99.90
16814;DHT22;8524;57.650;11.926;2022-09-01T15:58:59;19.80;99.90
16814;DHT22;8524;57.650;11.926;2022-09-01T16:01:28;19.80;99.90
16814;DHT22;8524;57.650;11.926;2022-09-01T16:03:56;19.70;99.90